Time;durP1;ratioP1;P1;durP2;ratioP2;P2;SDS_P1;SDS_P2;PMS_P1;PMS_P2;Temp;Humidity;BMP_temperature;BMP_pressure;BME280_temperature;BME280_humidity;BME280_pressure;Samples;Min_cycle;Max_cycle;Signal;HPM_P1;HPM_P2
2021/05/10 00:01:00;;;;;;;7.88;7.10;;;20.30;66.40;;;;;;6158216;23;20088;-69
2021/05/10 00:03:27;;;;;;;8.13;6.65;;;20.20;66.80;;;;;;6132048;23;20016;-69
2021/05/10 00:05:54;;;;;;;9.52;8.10;;;20.00;67.40;;;;;;6184812;23;20013;-69
2021/05/10 00:08:22;;;;;;;7.32;6.55;;;19.80;68.00;;;;;;6184255;23;20009;-69
2021/05/10 00:10:49;;;;;;;12.77;9.13;;;19.60;68.80;;;;;;6184307;23;20459;-70
2021/05/10 00:13:18;;;;;;;10.10;7.97;;;19.50;69.40;;;;;;6156624;23;20382;-69
2021/05/10 00:15:48;;;;;;;9.93;8.48;;;19.30;69.60;;;;;;6183786;23;20013;-69
2021/05/10 00:18:19;;;;;;;9.35;7.05;;;19.10;69.80;;;;;;6182671;23;20031;-69
2021/05/10 00:20:47;;;;;;;8.65;6.80;;;18.90;70.50;;;;;;6155833;23;20017;-69
2021/05/10 00:23:14;;;;;;;9.43;8.45;;;18.80;70.80;;;;;;6181219;23;20137;-68
2021/05/10 00:25:41;;;;;;;7.03;4.57;;;18.70;70.30;;;;;;6157426;23;20032;-69
2021/05/10 00:28:07;;;;;;;11.43;9.55;;;18.80;71.50;;;;;;6156234;23;20017;-69
2021/05/10 00:30:37;;;;;;;8.00;6.32;;;18.80;70.10;;;;;;6155824;23;20020;-69
2021/05/10 00:33:04;;;;;;;8.05;7.25;;;18.70;70.60;;;;;;6184026;23;20054;-69
2021/05/10 00:35:29;;;;;;;8.85;6.53;;;18.70;70.70;;;;;;6182205;23;20023;-69
2021/05/10 00:37:55;;;;;;;10.38;5.35;;;18.70;70.80;;;;;;6182086;23;20092;-69
2021/05/10 00:40:24;;;;;;;7.88;5.55;;;18.80;71.30;;;;;;6181079;23;20048;-70
2021/05/10 00:42:50;;;;;;;8.70;6.18;;;18.80;71.10;;;;;;6183310;23;20024;-69
2021/05/10 00:45:16;;;;;;;8.77;6.85;;;18.80;71.30;;;;;;6182116;23;20105;-69
2021/05/10 00:47:43;;;;;;;7.82;6.95;;;18.90;70.50;;;;;;6181417;23;20013;-69
2021/05/10 00:50:11;;;;;;;8.32;5.95;;;19.00;69.70;;;;;;6183282;23;20019;-69
2021/05/10 00:52:37;;;;;;;11.82;9.85;;;19.00;69.90;;;;;;6132120;23;20028;-69
2021/05/10 00:55:06;;;;;;;12.68;9.48;;;19.10;69.10;;;;;;6155817;23;20463;-70
2021/05/10 00:57:36;;;;;;;8.13;6.72;;;18.90;68.60;;;;;;6181369;23;20021;-69
2021/05/10 01:00:12;;;;;;;10.77;9.68;;;18.70;69.70;;;;;;6181458;23;20622;-69
2021/05/10 01:02:39;;;;;;;11.60;9.35;;;18.60;69.90;;;;;;6183468;23;20037;-69
2021/05/10 01:05:06;;;;;;;12.10;9.38;;;18.40;70.20;;;;;;6183533;23;20023;-69
2021/05/10 01:07:32;;;;;;;8.25;5.95;;;18.30;70.80;;;;;;6181192;23;20025;-69
2021/05/10 01:09:59;;;;;;;9.27;8.02;;;18.20;71.90;;;;;;6181657;23;20064;-69
2021/05/10 01:12:26;;;;;;;11.43;8.90;;;18.20;72.10;;;;;;6181607;23;20044;-69
2021/05/10 01:14:52;;;;;;;12.82;9.43;;;18.20;72.00;;;;;;6181909;23;20051;-70
2021/05/10 01:17:39;;;;;;;13.57;8.60;;;18.10;71.90;;;;;;6158724;23;20021;-69
2021/05/10 01:20:08;;;;;;;14.38;10.07;;;17.90;72.40;;;;;;6182165;23;20059;-70
2021/05/10 01:22:41;;;;;;;14.15;9.65;;;17.80;72.50;;;;;;6180977;23;20017;-69
2021/05/10 01:25:09;;;;;;;13.82;9.82;;;17.70;72.90;;;;;;6156524;23;20055;-70
2021/05/10 01:27:36;;;;;;;12.75;11.15;;;17.60;73.50;;;;;;6182249;23;20017;-69
2021/05/10 01:30:07;;;;;;;14.02;10.15;;;17.50;74.20;;;;;;6181594;23;20372;-68
2021/05/10 01:32:33;;;;;;;10.10;5.85;;;17.50;74.60;;;;;;6180495;23;20013;-69
2021/05/10 01:34:59;;;;;;;10.93;7.80;;;17.50;76.10;;;;;;6180275;23;20447;-69
2021/05/10 01:37:26;;;;;;;12.10;5.80;;;17.50;76.30;;;;;;6181624;23;20013;-69
2021/05/10 01:39:53;;;;;;;6.80;5.50;;;17.60;76.60;;;;;;6154866;23;20823;-70
2021/05/10 01:42:19;;;;;;;10.23;9.18;;;17.80;76.00;;;;;;6180970;23;20044;-70
2021/05/10 01:44:45;;;;;;;14.38;8.90;;;17.90;74.60;;;;;;6129987;23;20063;-70
2021/05/10 01:47:31;;;;;;;15.43;9.52;;;18.00;74.10;;;;;;6158463;23;20053;-70
2021/05/10 01:49:57;;;;;;;14.23;8.97;;;17.90;73.60;;;;;;6182144;23;20017;-70
2021/05/10 01:52:23;;;;;;;14.70;9.32;;;17.80;73.90;;;;;;6180430;23;20220;-70
2021/05/10 01:54:51;;;;;;;9.02;6.45;;;17.60;74.20;;;;;;6181997;23;20013;-69
2021/05/10 01:57:19;;;;;;;7.25;5.05;;;17.60;75.40;;;;;;6182890;23;20017;-69
2021/05/10 01:59:46;;;;;;;7.28;5.28;;;17.70;76.60;;;;;;6180603;23;20081;-69
2021/05/10 02:02:13;;;;;;;9.10;5.72;;;18.00;76.10;;;;;;6155840;23;20037;-70
2021/05/10 02:05:08;;;;;;;10.18;6.60;;;18.20;74.90;;;;;;6181186;23;20408;-71
2021/05/10 02:07:38;;;;;;;7.57;5.97;;;18.40;73.20;;;;;;6181138;23;20017;-71
2021/05/10 02:10:08;;;;;;;12.85;7.65;;;18.30;73.40;;;;;;6180476;23;20092;-70
2021/05/10 02:12:34;;;;;;;11.32;8.15;;;18.20;73.20;;;;;;6182247;23;20374;-69
2021/05/10 02:15:00;;;;;;;13.85;10.25;;;18.10;73.00;;;;;;6156794;23;20068;-71
2021/05/10 02:17:26;;;;;;;14.95;10.93;;;17.90;73.50;;;;;;6180711;23;20021;-69
2021/05/10 02:19:52;;;;;;;15.27;10.70;;;17.60;74.20;;;;;;6181542;23;20431;-69
2021/05/10 02:22:19;;;;;;;13.10;9.73;;;17.40;75.20;;;;;;6154878;23;20021;-69
2021/05/10 02:24:44;;;;;;;14.05;11.48;;;17.20;76.10;;;;;;6181411;23;20017;-71
2021/05/10 02:27:10;;;;;;;19.52;12.45;;;17.10;76.90;;;;;;6180441;23;20016;-69
2021/05/10 02:29:36;;;;;;;18.48;14.27;;;17.00;77.90;;;;;;6182837;23;20017;-70
2021/05/10 02:32:02;;;;;;;16.42;14.45;;;16.80;79.30;;;;;;6180758;23;20017;-70
2021/05/10 02:34:31;;;;;;;22.20;15.52;;;16.70;80.50;;;;;;6157577;23;20467;-70
2021/05/10 02:36:57;;;;;;;16.75;13.82;;;16.60;81.10;;;;;;6129945;23;20069;-70
2021/05/10 02:39:23;;;;;;;19.33;13.18;;;16.50;81.40;;;;;;6155318;23;20016;-70
2021/05/10 02:41:48;;;;;;;17.30;14.55;;;16.50;81.60;;;;;;6180571;23;20027;-70
2021/05/10 02:44:14;;;;;;;16.25;13.85;;;16.50;81.70;;;;;;6155824;23;20017;-70
2021/05/10 02:46:40;;;;;;;21.13;14.43;;;16.60;81.50;;;;;;6181664;23;20047;-70
2021/05/10 02:49:06;;;;;;;17.05;13.80;;;16.60;81.40;;;;;;6180650;23;20041;-70
2021/05/10 02:51:32;;;;;;;18.65;13.98;;;16.60;81.50;;;;;;6180045;23;20047;-70
2021/05/10 02:53:58;;;;;;;17.05;14.40;;;16.60;81.40;;;;;;6154305;23;20091;-70
2021/05/10 02:56:24;;;;;;;16.27;13.85;;;16.70;81.50;;;;;;6180229;23;20583;-70
2021/05/10 02:58:50;;;;;;;15.43;13.60;;;16.70;81.50;;;;;;6180333;23;20017;-70
2021/05/10 03:01:16;;;;;;;17.42;13.95;;;16.70;81.40;;;;;;6182214;23;20017;-69
2021/05/10 03:03:41;;;;;;;8.35;7.45;;;16.80;81.40;;;;;;6181813;23;20331;-69
2021/05/10 03:06:07;;;;;;;17.85;15.05;;;16.80;81.60;;;;;;6181560;23;20080;-69
2021/05/10 03:08:33;;;;;;;18.25;10.93;;;16.90;81.40;;;;;;6155258;23;20036;-69
2021/05/10 03:10:59;;;;;;;10.82;6.15;;;17.00;81.30;;;;;;6180362;23;20471;-69
2021/05/10 03:13:25;;;;;;;15.93;9.55;;;17.10;81.10;;;;;;6183304;23;20021;-70
2021/05/10 03:15:51;;;;;;;12.98;10.63;;;17.30;80.70;;;;;;6180137;23;20108;-69
2021/05/10 03:18:16;;;;;;;17.20;13.57;;;17.40;80.30;;;;;;6154975;23;20032;-64
2021/05/10 03:20:42;;;;;;;9.18;5.00;;;17.40;79.90;;;;;;6181273;23;20108;-64
2021/05/10 03:23:08;;;;;;;12.05;7.18;;;17.40;80.20;;;;;;6154565;23;20454;-64
2021/05/10 03:25:34;;;;;;;14.55;11.88;;;17.60;79.80;;;;;;6154254;23;20439;-64
2021/05/10 03:28:00;;;;;;;15.05;11.35;;;17.60;79.10;;;;;;6181675;23;20095;-64
2021/05/10 03:30:26;;;;;;;20.30;14.98;;;17.70;78.90;;;;;;6182406;23;20009;-64
2021/05/10 03:32:53;;;;;;;14.52;11.30;;;17.60;78.80;;;;;;6182737;23;20021;-64
2021/05/10 03:35:20;;;;;;;17.98;15.90;;;17.50;78.90;;;;;;6155678;23;20017;-64
2021/05/10 03:37:46;;;;;;;22.73;16.48;;;17.40;79.30;;;;;;6157158;23;20017;-64
2021/05/10 03:40:15;;;;;;;20.73;17.15;;;17.20;79.90;;;;;;6181950;23;20080;-64
2021/05/10 03:42:42;;;;;;;25.52;18.23;;;17.10;80.50;;;;;;6182126;23;20144;-65
2021/05/10 03:45:13;;;;;;;18.88;16.00;;;17.00;80.90;;;;;;6184647;23;20067;-64
2021/05/10 03:47:39;;;;;;;19.92;15.98;;;17.10;81.10;;;;;;6157211;23;20024;-64
2021/05/10 03:50:11;;;;;;;15.30;13.63;;;17.00;81.20;;;;;;6182172;23;20063;-64
2021/05/10 03:52:37;;;;;;;17.27;12.85;;;17.10;81.30;;;;;;6182800;23;20021;-65
2021/05/10 03:55:05;;;;;;;15.20;12.98;;;17.10;81.40;;;;;;6182308;23;20096;-65
2021/05/10 03:57:31;;;;;;;17.40;13.43;;;17.10;81.40;;;;;;6181523;23;20009;-65
2021/05/10 03:59:57;;;;;;;23.60;15.57;;;17.20;81.30;;;;;;6182794;23;20024;-65
2021/05/10 04:02:23;;;;;;;17.92;15.20;;;17.20;81.30;;;;;;6157423;23;20017;-65
2021/05/10 04:15:45;;;;;;;16.30;13.43;;;17.20;81.60;;;;;;6181420;23;20032;-64
2021/05/10 04:18:10;;;;;;;20.38;13.95;;;17.30;81.40;;;;;;6183875;23;20087;-65
2021/05/10 04:20:36;;;;;;;17.60;13.30;;;17.40;81.20;;;;;;6183240;23;20021;-69
2021/05/10 04:23:02;;;;;;;14.38;12.52;;;17.40;81.00;;;;;;6155693;23;20051;-69
2021/05/10 04:25:29;;;;;;;16.35;13.75;;;17.40;80.80;;;;;;6155320;23;20354;-69
2021/05/10 04:27:54;;;;;;;16.17;14.45;;;17.40;80.80;;;;;;6183766;23;20025;-64
2021/05/10 04:30:21;;;;;;;14.25;12.85;;;17.40;80.90;;;;;;6181348;23;20095;-64
2021/05/10 04:32:46;;;;;;;15.38;12.85;;;17.40;80.90;;;;;;6181772;23;20009;-66
2021/05/10 04:35:12;;;;;;;14.95;13.40;;;17.40;81.50;;;;;;6181337;23;20039;-64
2021/05/10 04:37:39;;;;;;;15.32;13.15;;;17.40;81.00;;;;;;6181482;23;20148;-65
2021/05/10 04:40:05;;;;;;;17.83;14.02;;;17.40;81.00;;;;;;6155950;23;20377;-64
2021/05/10 04:42:34;;;;;;;16.48;13.25;;;17.40;81.00;;;;;;6181175;23;20519;-64
2021/05/10 04:45:01;;;;;;;14.45;12.65;;;17.40;81.20;;;;;;6155228;23;20040;-64
2021/05/10 04:47:36;;;;;;;14.10;12.57;;;17.40;81.30;;;;;;6182991;23;20355;-65
2021/05/10 04:50:09;;;;;;;15.52;12.77;;;17.40;81.20;;;;;;6181281;23;20075;-65
2021/05/10 04:52:35;;;;;;;12.25;10.35;;;17.40;80.90;;;;;;6182074;23;20121;-65
2021/05/10 04:55:01;;;;;;;17.90;12.95;;;17.50;79.40;;;;;;6182551;23;20443;-65
2021/05/10 04:57:27;;;;;;;16.55;12.48;;;17.60;78.80;;;;;;6181980;23;20013;-65
2021/05/10 04:59:52;;;;;;;17.55;14.80;;;17.60;79.00;;;;;;6182107;23;20056;-65
2021/05/10 05:02:18;;;;;;;22.33;13.13;;;17.60;79.30;;;;;;6180931;23;20455;-65
2021/05/10 05:04:44;;;;;;;14.65;12.75;;;17.50;79.60;;;;;;6181175;23;20012;-65
2021/05/10 05:07:10;;;;;;;15.65;11.82;;;17.40;79.80;;;;;;6181848;23;20021;-65
2021/05/10 05:09:36;;;;;;;14.10;9.95;;;17.30;80.20;;;;;;6182338;23;20013;-65
2021/05/10 05:12:06;;;;;;;16.13;10.70;;;17.30;80.40;;;;;;6182160;23;20340;-65
2021/05/10 05:14:31;;;;;;;13.27;8.93;;;17.30;80.30;;;;;;6181324;23;20028;-65
2021/05/10 05:16:58;;;;;;;13.75;9.93;;;17.30;80.30;;;;;;6181368;23;20020;-64
2021/05/10 05:19:24;;;;;;;11.60;9.23;;;17.30;80.30;;;;;;6180743;23;20514;-64
2021/05/10 05:21:51;;;;;;;12.38;8.95;;;17.30;80.20;;;;;;6157360;23;20129;-65
2021/05/10 05:24:17;;;;;;;11.98;8.82;;;17.30;80.00;;;;;;6182568;23;20035;-65
2021/05/10 05:26:43;;;;;;;12.68;8.80;;;17.30;79.60;;;;;;6155427;23;20016;-65
2021/05/10 05:29:09;;;;;;;13.38;8.43;;;17.40;79.20;;;;;;6183461;23;20074;-65
2021/05/10 05:31:35;;;;;;;10.05;7.43;;;17.40;79.30;;;;;;6180585;23;20450;-66
2021/05/10 05:34:01;;;;;;;10.65;7.15;;;17.50;78.40;;;;;;6155754;23;20032;-66
2021/05/10 05:36:28;;;;;;;8.93;6.20;;;17.50;77.60;;;;;;6181852;23;20483;-66
2021/05/10 05:38:53;;;;;;;12.70;6.97;;;17.60;77.00;;;;;;6181472;23;20023;-66
2021/05/10 05:41:19;;;;;;;8.57;5.82;;;17.60;76.50;;;;;;6182997;23;20021;-64
2021/05/10 05:43:45;;;;;;;5.53;4.70;;;17.80;75.60;;;;;;6180995;23;20036;-64
2021/05/10 05:46:14;;;;;;;6.38;3.70;;;18.00;74.40;;;;;;6180830;23;20023;-64
2021/05/10 05:48:40;;;;;;;7.55;3.08;;;18.20;72.80;;;;;;6181918;23;20024;-64
2021/05/10 05:51:09;;;;;;;8.68;3.40;;;18.50;71.20;;;;;;6180586;23;20044;-64
2021/05/10 05:53:35;;;;;;;5.47;2.90;;;18.70;69.30;;;;;;6183598;23;20343;-64
2021/05/10 05:56:00;;;;;;;6.05;2.53;;;18.90;68.60;;;;;;6180376;23;20013;-64
2021/05/10 05:58:26;;;;;;;10.60;2.72;;;19.00;67.90;;;;;;6181686;23;20323;-64
2021/05/10 06:00:53;;;;;;;12.05;2.83;;;19.10;67.40;;;;;;6105656;23;20311;-62
2021/05/10 06:03:20;;;;;;;4.90;2.40;;;19.10;67.80;;;;;;6182467;23;20100;-62
2021/05/10 06:05:46;;;;;;;4.72;2.92;;;19.10;68.10;;;;;;6180567;23;20497;-62
2021/05/10 06:08:14;;;;;;;3.80;2.67;;;19.00;68.70;;;;;;6181279;23;20017;-62
2021/05/10 06:10:41;;;;;;;3.38;2.40;;;19.00;70.40;;;;;;6181291;23;20465;-58
2021/05/10 06:13:07;;;;;;;4.10;2.20;;;19.10;70.50;;;;;;6182860;23;20098;-60
2021/05/10 06:15:33;;;;;;;3.65;1.80;;;19.10;69.50;;;;;;6182465;23;20083;-58
2021/05/10 06:18:00;;;;;;;5.53;2.15;;;19.20;68.90;;;;;;6181060;23;20021;-59
2021/05/10 06:20:27;;;;;;;4.13;1.80;;;19.30;68.70;;;;;;6180219;23;20016;-60
2021/05/10 06:22:54;;;;;;;5.32;2.00;;;19.40;68.20;;;;;;6181352;23;20036;-60
2021/05/10 06:25:20;;;;;;;3.90;1.80;;;19.50;68.60;;;;;;6180659;23;20035;-60
2021/05/10 06:27:46;;;;;;;6.18;2.03;;;19.60;69.20;;;;;;6181008;23;20067;-60
2021/05/10 06:30:13;;;;;;;7.47;1.58;;;19.70;68.70;;;;;;6180601;23;20084;-60
2021/05/10 06:32:40;;;;;;;4.32;1.73;;;19.70;67.70;;;;;;6180557;23;20021;-59
2021/05/10 06:35:07;;;;;;;2.42;1.20;;;19.80;67.50;;;;;;6181123;23;20024;-60
2021/05/10 06:37:34;;;;;;;5.68;1.67;;;19.70;66.60;;;;;;6180235;23;20022;-61
2021/05/10 06:40:01;;;;;;;3.67;1.30;;;19.80;63.80;;;;;;6181697;23;20044;-65
2021/05/10 06:42:26;;;;;;;2.90;1.23;;;19.90;62.70;;;;;;6180243;23;20017;-66
2021/05/10 06:44:55;;;;;;;3.67;1.58;;;20.10;62.40;;;;;;6177576;23;20455;-60
2021/05/10 06:47:21;;;;;;;2.90;1.42;;;20.10;62.40;;;;;;6179796;23;20506;-60
2021/05/10 06:49:47;;;;;;;4.68;1.70;;;20.10;63.00;;;;;;6180154;23;20021;-60
2021/05/10 06:52:13;;;;;;;5.57;1.38;;;20.10;63.50;;;;;;6181138;23;20067;-60
2021/05/10 06:54:39;;;;;;;3.33;1.40;;;20.00;63.00;;;;;;6181467;23;20024;-60
2021/05/10 06:57:04;;;;;;;4.45;1.08;;;20.00;62.60;;;;;;6181768;23;20020;-61
2021/05/10 06:59:30;;;;;;;6.07;1.10;;;20.00;62.10;;;;;;6180986;23;20020;-60
2021/05/10 07:01:58;;;;;;;7.30;1.08;;;19.90;61.80;;;;;;6179973;23;20088;-60
2021/05/10 07:04:24;;;;;;;6.03;1.35;;;20.00;61.50;;;;;;6180946;23;20059;-61
2021/05/10 07:06:49;;;;;;;4.00;1.00;;;20.00;61.30;;;;;;6179822;23;20019;-60
2021/05/10 07:09:15;;;;;;;8.35;1.40;;;20.00;61.80;;;;;;6183498;23;20124;-60
2021/05/10 07:11:41;;;;;;;5.70;1.33;;;20.00;61.60;;;;;;6181538;23;20021;-60
2021/05/10 07:14:07;;;;;;;7.18;1.42;;;20.10;61.50;;;;;;6182364;23;20017;-60
2021/05/10 07:16:34;;;;;;;11.90;1.80;;;20.10;61.60;;;;;;6184918;23;20083;-61
2021/05/10 07:19:00;;;;;;;5.13;1.42;;;20.10;61.40;;;;;;6184340;23;20088;-62
2021/05/10 07:21:27;;;;;;;4.10;1.92;;;20.20;61.50;;;;;;6183822;23;20048;-62
2021/05/10 07:23:53;;;;;;;3.25;1.30;;;20.30;61.40;;;;;;6181275;23;20017;-61
2021/05/10 07:26:18;;;;;;;5.65;1.30;;;20.30;61.40;;;;;;6181795;23;20071;-61
2021/05/10 07:28:46;;;;;;;7.93;1.50;;;20.30;61.60;;;;;;6181813;23;20020;-61
2021/05/10 07:31:12;;;;;;;3.08;1.33;;;20.30;61.80;;;;;;6181667;23;20096;-61
2021/05/10 07:33:38;;;;;;;6.25;1.40;;;20.40;61.90;;;;;;6184156;23;20024;-61
2021/05/10 07:36:04;;;;;;;5.40;2.20;;;20.50;61.80;;;;;;6183960;23;20087;-61
2021/05/10 07:38:30;;;;;;;5.43;1.15;;;20.90;61.60;;;;;;6182443;23;20092;-61
2021/05/10 07:40:56;;;;;;;8.65;1.60;;;21.30;61.10;;;;;;6181869;23;20040;-61
2021/05/10 07:43:22;;;;;;;10.10;1.50;;;21.60;60.00;;;;;;6181738;23;20028;-61
2021/05/10 07:45:47;;;;;;;11.88;1.75;;;21.80;58.40;;;;;;6181565;23;20036;-64
2021/05/10 07:48:13;;;;;;;4.55;1.13;;;22.10;57.10;;;;;;6156357;23;20017;-67
2021/05/10 07:50:39;;;;;;;6.75;0.90;;;22.30;55.70;;;;;;6156466;23;20017;-64
2021/05/10 07:53:05;;;;;;;1.27;0.63;;;22.30;55.70;;;;;;6180897;23;20455;-67
2021/05/10 07:55:33;;;;;;;4.05;0.70;;;22.40;55.20;;;;;;6181051;23;20036;-65
2021/05/10 07:57:59;;;;;;;6.32;1.10;;;22.30;55.00;;;;;;6182124;23;20020;-66
2021/05/10 08:00:31;;;;;;;5.32;0.57;;;22.20;54.80;;;;;;6182137;23;20076;-65
2021/05/10 08:03:05;;;;;;;3.72;1.05;;;22.10;54.70;;;;;;6182681;23;20017;-68
2021/05/10 08:05:31;;;;;;;5.68;0.90;;;22.00;55.20;;;;;;6182551;23;20443;-66
2021/05/10 08:07:57;;;;;;;2.60;1.05;;;21.90;55.40;;;;;;6181170;23;20044;-67
2021/05/10 08:10:23;;;;;;;5.35;0.90;;;21.90;56.40;;;;;;6182223;23;20009;-67
2021/05/10 08:12:49;;;;;;;3.63;1.02;;;21.80;57.10;;;;;;6182263;23;20689;-65
2021/05/10 08:15:15;;;;;;;7.40;0.70;;;21.80;57.60;;;;;;6155407;23;20036;-65
2021/05/10 08:17:41;;;;;;;1.88;0.50;;;21.90;57.70;;;;;;6181624;23;20012;-64
2021/05/10 08:20:08;;;;;;;3.17;0.43;;;22.00;57.30;;;;;;6155451;23;20027;-67
2021/05/10 08:22:34;;;;;;;3.40;0.50;;;22.00;56.30;;;;;;6181769;23;20351;-67
2021/05/10 08:25:00;;;;;;;3.97;0.60;;;21.80;55.40;;;;;;6183351;23;20008;-68
2021/05/10 08:27:26;;;;;;;2.65;0.40;;;21.60;55.80;;;;;;6182131;23;20083;-68
2021/05/10 08:29:52;;;;;;;2.03;0.40;;;21.30;56.40;;;;;;6181318;23;20067;-66
2021/05/10 08:32:18;;;;;;;2.50;0.68;;;21.00;57.60;;;;;;6180725;23;20146;-66
2021/05/10 08:34:44;;;;;;;2.72;0.30;;;20.80;57.70;;;;;;6181344;23;20044;-66
2021/05/10 08:37:10;;;;;;;1.02;0.38;;;20.70;58.30;;;;;;6183375;23;20013;-66
2021/05/10 08:39:35;;;;;;;2.50;0.40;;;20.60;58.40;;;;;;6155779;23;20483;-66
2021/05/10 08:42:01;;;;;;;3.28;0.70;;;20.40;58.70;;;;;;6183457;23;20447;-68
2021/05/10 08:44:27;;;;;;;3.30;0.30;;;20.30;59.20;;;;;;6156576;23;20013;-67
2021/05/10 08:46:53;;;;;;;0.88;0.20;;;20.20;59.40;;;;;;6183123;23;20013;-67
2021/05/10 08:49:21;;;;;;;1.75;0.40;;;20.20;59.60;;;;;;6156122;23;20092;-67
2021/05/10 08:51:48;;;;;;;4.72;0.40;;;20.10;59.60;;;;;;6181051;23;20013;-67
2021/05/10 08:54:25;;;;;;;2.17;0.20;;;20.10;59.90;;;;;;6181047;23;20466;-67
2021/05/10 08:56:52;;;;;;;6.32;0.47;;;20.10;60.20;;;;;;6181952;23;20095;-67
2021/05/10 08:59:22;;;;;;;1.88;0.40;;;20.00;60.60;;;;;;6180826;23;20454;-66
2021/05/10 09:01:59;;;;;;;3.72;0.52;;;20.00;60.40;;;;;;6181034;23;20021;-67
2021/05/10 09:04:32;;;;;;;3.33;0.70;;;20.00;60.30;;;;;;6181147;23;20012;-67
2021/05/10 09:07:17;;;;;;;1.70;0.40;;;19.90;60.60;;;;;;6181780;23;20020;-67
2021/05/10 09:09:57;;;;;;;0.65;0.40;;;19.90;61.10;;;;;;6181922;23;20035;-67
2021/05/10 09:12:23;;;;;;;0.75;0.30;;;20.00;62.20;;;;;;6182858;23;20016;-65
2021/05/10 09:14:50;;;;;;;4.28;0.60;;;20.10;62.60;;;;;;6182985;23;20051;-67
2021/05/10 09:17:18;;;;;;;1.65;0.73;;;20.20;62.60;;;;;;6183118;23;20558;-66
2021/05/10 09:19:51;;;;;;;1.05;0.50;;;20.40;62.80;;;;;;6181672;23;20155;-66
2021/05/10 09:22:18;;;;;;;2.33;0.45;;;20.50;62.10;;;;;;6182853;23;20028;-66
2021/05/10 09:24:52;;;;;;;1.73;0.30;;;20.70;62.50;;;;;;6182936;23;20024;-62
2021/05/10 09:27:30;;;;;;;4.10;0.70;;;21.00;62.10;;;;;;6182671;23;20013;-62
2021/05/10 09:30:17;;;;;;;2.85;0.57;;;21.30;60.90;;;;;;6180449;23;20017;-62
2021/05/10 09:32:52;;;;;;;0.75;0.50;;;21.50;60.20;;;;;;6156409;23;20021;-63
2021/05/10 09:35:19;;;;;;;1.92;0.47;;;21.50;59.90;;;;;;6182506;23;20510;-63
2021/05/10 09:38:03;;;;;;;1.15;0.30;;;21.40;59.90;;;;;;6180727;23;20045;-62
2021/05/10 09:40:40;;;;;;;0.95;0.25;;;21.30;59.60;;;;;;6180807;23;20092;-63
2021/05/10 09:43:07;;;;;;;1.80;0.40;;;21.20;59.80;;;;;;6180304;23;20459;-64
2021/05/10 09:45:45;;;;;;;2.47;0.50;;;21.10;60.20;;;;;;6181242;23;20016;-65
2021/05/10 09:48:22;;;;;;;1.20;0.40;;;21.30;60.10;;;;;;6179858;23;20024;-63
2021/05/10 09:51:02;;;;;;;1.83;0.50;;;21.40;59.90;;;;;;6182199;23;20166;-63
2021/05/10 09:53:38;;;;;;;3.55;0.85;;;21.40;59.60;;;;;;6180349;23;20068;-63
2021/05/10 09:56:24;;;;;;;5.70;0.80;;;21.40;59.30;;;;;;6181416;23;20024;-62
2021/05/10 09:58:50;;;;;;;3.20;0.82;;;21.30;59.30;;;;;;6153300;23;20320;-62
2021/05/10 10:01:16;;;;;;;1.02;0.50;;;21.20;59.50;;;;;;6180221;23;20017;-63
2021/05/10 10:03:47;;;;;;;2.25;1.00;;;21.20;59.80;;;;;;6182469;23;20040;-62
2021/05/10 10:06:15;;;;;;;1.77;0.85;;;21.10;60.10;;;;;;6180507;23;20087;-63
2021/05/10 10:08:46;;;;;;;6.15;2.00;;;21.10;60.40;;;;;;6180049;23;20048;-63
2021/05/10 10:11:14;;;;;;;7.47;2.67;;;21.10;60.40;;;;;;6180042;23;20017;-63
2021/05/10 10:13:41;;;;;;;7.13;2.67;;;21.20;60.30;;;;;;6179385;23;20013;-63
2021/05/10 10:16:07;;;;;;;7.25;3.17;;;21.20;60.00;;;;;;6181368;23;20021;-63
2021/05/10 10:18:36;;;;;;;6.00;2.38;;;21.20;60.40;;;;;;6182544;23;20335;-63
2021/05/10 10:21:03;;;;;;;4.30;2.10;;;21.10;60.60;;;;;;6181094;23;20124;-63
2021/05/10 10:23:29;;;;;;;4.30;1.70;;;21.10;60.50;;;;;;6180246;23;20021;-62
2021/05/10 10:25:57;;;;;;;6.00;2.08;;;21.10;60.80;;;;;;6156132;23;20039;-62
2021/05/10 10:28:26;;;;;;;6.40;2.35;;;21.10;61.00;;;;;;6154907;23;20013;-62
2021/05/10 10:31:03;;;;;;;4.18;1.73;;;21.10;61.80;;;;;;6181173;23;20055;-63
2021/05/10 10:33:51;;;;;;;4.93;0.70;;;21.10;61.70;;;;;;6154353;23;20013;-68
2021/05/10 10:36:22;;;;;;;2.95;0.70;;;20.70;60.90;;;;;;6180215;23;20509;-68
2021/05/10 10:39:20;;;;;;;2.90;1.08;;;20.20;61.30;;;;;;6182059;23;20021;-69
2021/05/10 10:42:06;;;;;;;1.98;0.60;;;19.80;61.70;;;;;;6183514;23;20050;-68
2021/05/10 10:44:34;;;;;;;3.33;0.82;;;19.40;62.00;;;;;;6183622;23;20732;-68
2021/05/10 10:47:01;;;;;;;1.52;0.73;;;19.20;62.80;;;;;;6182929;23;20566;-68
2021/05/10 10:49:34;;;;;;;2.70;0.70;;;19.00;63.30;;;;;;6183245;23;20017;-71
2021/05/10 10:52:00;;;;;;;1.73;0.63;;;18.70;63.30;;;;;;6183927;23;20013;-71
2021/05/10 10:54:28;;;;;;;2.03;0.80;;;18.60;63.60;;;;;;6155271;23;20044;-70
2021/05/10 10:56:59;;;;;;;0.90;0.50;;;18.40;63.80;;;;;;6156019;23;20088;-71
2021/05/10 10:59:34;;;;;;;1.05;0.70;;;18.30;64.30;;;;;;6181805;23;20111;-70
2021/05/10 11:02:15;;;;;;;1.15;0.60;;;18.10;64.60;;;;;;6183396;23;20013;-70
2021/05/10 11:04:41;;;;;;;1.73;0.50;;;18.10;64.90;;;;;;6184709;23;20043;-67
2021/05/10 11:07:06;;;;;;;1.73;0.70;;;17.90;65.50;;;;;;6182068;23;20017;-73
2021/05/10 11:09:49;;;;;;;0.95;0.50;;;17.90;66.10;;;;;;6184176;23;20144;-74
2021/05/10 11:12:50;;;;;;;1.23;0.68;;;17.80;66.80;;;;;;6183716;23;20135;-73
2021/05/10 11:15:44;;;;;;;1.33;0.45;;;17.80;67.20;;;;;;6182121;23;20013;-64
2021/05/10 11:18:10;;;;;;;1.55;0.80;;;17.80;67.20;;;;;;6182002;23;20092;-65
2021/05/10 11:20:41;;;;;;;1.13;0.60;;;17.80;67.80;;;;;;6183222;23;20053;-66
2021/05/10 11:23:37;;;;;;;4.43;0.82;;;17.90;68.00;;;;;;6155197;23;20017;-66
2021/05/10 11:26:06;;;;;;;2.72;0.80;;;18.10;67.40;;;;;;6179211;23;20021;-65
2021/05/10 11:28:32;;;;;;;2.60;1.00;;;18.30;67.60;;;;;;6182455;23;20088;-66
2021/05/10 11:30:57;;;;;;;4.20;1.38;;;18.40;67.50;;;;;;6182679;23;20021;-65
2021/05/10 11:33:51;;;;;;;4.10;0.73;;;18.60;67.30;;;;;;6183404;23;20019;-65
2021/05/10 11:36:45;;;;;;;2.70;1.17;;;18.80;66.40;;;;;;6180814;23;20017;-65
2021/05/10 11:39:12;;;;;;;2.30;0.90;;;18.90;66.50;;;;;;6182625;23;20013;-65
2021/05/10 11:41:43;;;;;;;1.05;0.75;;;18.80;66.20;;;;;;6183207;23;20021;-65
2021/05/10 11:44:16;;;;;;;3.78;0.95;;;18.80;65.80;;;;;;6181882;23;20017;-65
2021/05/10 11:46:47;;;;;;;;;;;18.60;65.90;;;;;;6183820;23;20017;-65
2021/05/10 11:49:31;;;;;;;2.30;0.80;;;18.60;66.10;;;;;;6183569;23;19998;-68
2021/05/10 11:52:04;;;;;;;3.33;0.85;;;18.60;66.10;;;;;;6182174;23;20092;-68
2021/05/10 11:54:30;;;;;;;1.65;0.90;;;18.60;65.80;;;;;;6182643;23;20020;-68
2021/05/10 11:56:59;;;;;;;2.33;0.80;;;18.60;66.20;;;;;;6181788;23;20350;-69
2021/05/10 11:59:56;;;;;;;2.35;0.68;;;18.70;66.20;;;;;;6181108;23;20091;-68
2021/05/10 12:02:28;;;;;;;2.00;0.80;;;18.70;66.00;;;;;;6181337;23;20021;-68
2021/05/10 12:05:03;;;;;;;2.25;0.70;;;18.70;66.10;;;;;;6180920;23;20438;-68
2021/05/10 12:07:30;;;;;;;1.58;0.70;;;18.70;65.90;;;;;;6155831;23;20020;-68
2021/05/10 12:10:03;;;;;;;1.52;0.85;;;18.80;66.20;;;;;;6180870;23;20017;-67
2021/05/10 12:12:46;;;;;;;1.30;0.77;;;18.80;66.20;;;;;;6181831;23;20013;-67
2021/05/10 12:15:16;;;;;;;;;;;19.00;66.10;;;;;;6182922;23;20020;-67
2021/05/10 12:17:44;;;;;;;3.53;1.10;;;19.10;65.90;;;;;;6183883;23;20319;-68
2021/05/10 12:20:18;;;;;;;1.15;0.50;;;19.10;66.00;;;;;;6182073;23;20043;-68
2021/05/10 12:22:47;;;;;;;2.33;0.82;;;19.20;65.40;;;;;;6181117;23;20318;-70
2021/05/10 12:25:29;;;;;;;1.48;0.70;;;19.20;65.20;;;;;;6184350;23;20447;-70
2021/05/10 12:28:13;;;;;;;2.35;0.90;;;19.30;65.10;;;;;;6180654;23;20021;-68
2021/05/10 12:30:45;;;;;;;1.58;0.85;;;19.30;64.80;;;;;;6170328;23;20013;-69
2021/05/10 12:33:15;;;;;;;2.03;0.80;;;19.30;64.20;;;;;;6159545;23;20052;-69
2021/05/10 12:35:53;;;;;;;1.75;0.90;;;19.40;63.90;;;;;;6173899;23;20481;-69
2021/05/10 12:38:26;;;;;;;1.70;1.00;;;19.50;63.20;;;;;;6174431;23;20024;-68
2021/05/10 12:40:52;;;;;;;3.33;1.15;;;19.60;63.10;;;;;;6173759;23;20577;-68
2021/05/10 12:43:23;;;;;;;2.55;1.02;;;19.50;62.80;;;;;;6175338;23;20033;-69
2021/05/10 12:45:57;;;;;;;2.65;1.10;;;19.50;62.90;;;;;;6174812;23;20017;-68
2021/05/10 12:48:27;;;;;;;1.38;0.90;;;19.50;63.00;;;;;;6174729;23;20016;-69
2021/05/10 12:51:05;;;;;;;2.85;0.90;;;19.50;63.00;;;;;;6174612;23;20126;-69
2021/05/10 12:53:38;;;;;;;2.83;1.10;;;19.50;62.00;;;;;;6173687;23;20017;-67
2021/05/10 12:56:06;;;;;;;6.47;1.00;;;19.50;61.60;;;;;;6174449;23;20096;-68
2021/05/10 12:58:39;;;;;;;2.22;0.90;;;19.40;62.00;;;;;;6175525;23;20312;-67
2021/05/10 13:01:25;;;;;;;4.90;1.92;;;19.40;62.10;;;;;;6174482;23;20021;-67